Time;durP1;ratioP1;P1;durP2;ratioP2;P2;SDS_P1;SDS_P2;PMS_P1;PMS_P2;Temp;Humidity;BMP_temperature;BMP_pressure;BME280_temperature;BME280_humidity;BME280_pressure;Samples;Min_cycle;Max_cycle;Signal;HPM_P1;HPM_P2
2023/07/30 00:02:04;;;;;;;26.33;3.22;;;15.20;99.90;;;;;;4955279;28;20480;-86
2023/07/30 00:04:30;;;;;;;22.25;3.13;;;15.10;99.90;;;;;;4955605;28;20046;-86
2023/07/30 00:06:56;;;;;;;23.48;3.25;;;15.20;99.90;;;;;;4955284;28;20046;-84
2023/07/30 00:09:21;;;;;;;23.35;3.30;;;15.20;99.90;;;;;;4955272;28;20042;-84
2023/07/30 00:11:47;;;;;;;17.17;2.78;;;15.20;99.90;;;;;;4955334;28;20118;-84
2023/07/30 00:14:13;;;;;;;17.95;3.17;;;15.20;99.90;;;;;;4954803;28;20028;-84
2023/07/30 00:16:38;;;;;;;18.63;3.17;;;15.30;99.90;;;;;;4954157;28;20027;-86
2023/07/30 00:19:04;;;;;;;13.30;3.15;;;15.30;99.90;;;;;;4955590;28;20491;-84
2023/07/30 00:23:58;;;;;;;21.10;5.10;;;15.50;99.90;;;;;;4970881;28;20484;-86
2023/07/30 00:26:26;;;;;;;16.50;2.78;;;15.60;99.90;;;;;;4981894;28;20065;-87
2023/07/30 00:28:51;;;;;;;17.90;2.70;;;15.70;99.90;;;;;;4973433;28;20541;-87
2023/07/30 00:31:17;;;;;;;20.92;2.25;;;15.90;99.90;;;;;;4975141;28;20598;-85
2023/07/30 00:33:43;;;;;;;14.65;2.80;;;15.90;99.90;;;;;;4955699;28;20023;-88
2023/07/30 00:36:08;;;;;;;13.75;2.88;;;16.00;99.90;;;;;;4954845;28;20034;-87
2023/07/30 00:38:34;;;;;;;16.88;2.40;;;16.00;99.90;;;;;;4955320;28;20436;-86
2023/07/30 00:40:59;;;;;;;15.85;2.97;;;16.10;99.90;;;;;;4954360;28;20472;-86
2023/07/30 00:43:25;;;;;;;13.55;2.40;;;16.20;99.90;;;;;;4955430;28;20020;-88
2023/07/30 00:45:51;;;;;;;16.08;2.58;;;16.30;99.90;;;;;;4955589;28;20027;-90
2023/07/30 00:48:16;;;;;;;16.27;2.38;;;16.40;99.90;;;;;;4954298;28;20023;-87
2023/07/30 00:50:43;;;;;;;20.00;2.97;;;16.40;99.90;;;;;;4955431;28;20039;-86
2023/07/30 00:53:11;;;;;;;14.98;2.17;;;16.50;99.90;;;;;;4955012;28;20031;-87
2023/07/30 00:55:36;;;;;;;12.48;2.88;;;16.50;99.90;;;;;;4955426;28;20046;-88
2023/07/30 00:58:03;;;;;;;20.95;3.28;;;16.50;99.90;;;;;;4953886;28;20369;-86
2023/07/30 01:00:29;;;;;;;18.10;2.55;;;16.50;99.90;;;;;;4954340;28;20015;-86
2023/07/30 01:02:56;;;;;;;11.70;2.22;;;16.50;99.90;;;;;;4955015;28;20019;-91
2023/07/30 01:05:21;;;;;;;12.45;2.20;;;16.60;99.90;;;;;;4954888;28;20015;-87
2023/07/30 01:07:47;;;;;;;14.73;2.95;;;16.60;99.70;;;;;;4954617;28;20030;-86
2023/07/30 01:10:13;;;;;;;10.55;2.22;;;16.70;99.90;;;;;;4954216;28;20042;-85
2023/07/30 01:12:40;;;;;;;15.75;2.83;;;16.60;99.90;;;;;;4954835;28;20066;-86
2023/07/30 01:15:07;;;;;;;14.05;3.22;;;16.70;99.90;;;;;;4954911;28;20031;-86
2023/07/30 01:17:32;;;;;;;17.23;3.40;;;16.60;99.90;;;;;;4954686;28;20031;-85
2023/07/30 01:19:58;;;;;;;17.67;2.85;;;16.70;99.90;;;;;;4954720;28;20082;-87
2023/07/30 01:22:24;;;;;;;12.70;2.92;;;16.70;99.90;;;;;;4969139;23;20122;-84
2023/07/30 01:24:50;;;;;;;16.45;2.85;;;16.70;99.90;;;;;;4934665;29;20030;-83
2023/07/30 01:27:36;;;;;;;8.57;2.55;;;16.70;99.90;;;;;;4934887;29;20385;-83
2023/07/30 01:30:22;;;;;;;10.20;2.72;;;16.70;99.50;;;;;;4941271;29;20030;-83
2023/07/30 01:32:52;;;;;;;14.88;2.90;;;16.80;99.40;;;;;;4934271;29;20520;-84
2023/07/30 01:35:25;;;;;;;17.45;3.30;;;16.80;99.70;;;;;;4933864;29;20027;-84
2023/07/30 01:37:52;;;;;;;11.88;2.38;;;16.80;99.60;;;;;;4933908;29;20056;-85
2023/07/30 01:40:18;;;;;;;18.90;3.22;;;16.70;99.70;;;;;;4934703;29;20067;-86
2023/07/30 01:42:43;;;;;;;26.13;3.00;;;16.70;99.50;;;;;;4934334;29;20031;-83
2023/07/30 01:45:09;;;;;;;15.15;2.85;;;16.80;99.70;;;;;;4933175;29;20019;-83
2023/07/30 01:47:35;;;;;;;11.68;3.90;;;16.80;99.40;;;;;;4934370;29;20024;-85
2023/07/30 01:50:00;;;;;;;13.18;3.47;;;16.80;99.40;;;;;;4948982;28;20034;-84
2023/07/30 01:52:26;;;;;;;25.85;3.72;;;16.90;99.40;;;;;;4935956;29;20023;-83
2023/07/30 01:54:52;;;;;;;18.35;3.65;;;16.90;99.10;;;;;;4934615;29;20477;-84
2023/07/30 01:57:18;;;;;;;21.00;3.05;;;16.90;99.20;;;;;;4948733;28;20437;-83
2023/07/30 01:59:43;;;;;;;13.95;2.75;;;16.80;99.40;;;;;;4933635;29;20043;-83
2023/07/30 02:02:09;;;;;;;16.88;3.20;;;16.80;99.40;;;;;;4933807;29;20469;-82
2023/07/30 02:04:34;;;;;;;14.48;2.63;;;16.80;99.20;;;;;;4932920;29;20495;-83
2023/07/30 02:07:00;;;;;;;21.60;2.55;;;16.70;99.40;;;;;;4932281;29;20058;-86
2023/07/30 02:09:26;;;;;;;17.23;3.08;;;16.80;99.00;;;;;;4934021;29;20038;-83
2023/07/30 02:11:51;;;;;;;16.27;2.85;;;16.80;99.10;;;;;;4933886;29;20031;-83
2023/07/30 02:14:20;;;;;;;13.80;2.63;;;16.70;99.20;;;;;;4933644;29;20058;-83
2023/07/30 02:16:46;;;;;;;18.95;3.17;;;16.70;99.40;;;;;;4934099;29;20039;-84
2023/07/30 02:19:11;;;;;;;18.13;2.72;;;16.80;99.40;;;;;;4934207;29;20016;-84
2023/07/30 02:24:09;;;;;;;13.93;2.38;;;16.70;99.60;;;;;;4926604;29;20409;-87
2023/07/30 02:26:35;;;;;;;17.85;3.33;;;16.80;99.00;;;;;;4948442;28;20023;-89
2023/07/30 02:29:01;;;;;;;11.15;2.20;;;16.80;99.00;;;;;;4947990;28;20034;-84
2023/07/30 02:31:26;;;;;;;14.43;2.83;;;16.80;98.90;;;;;;4933564;29;20079;-84
2023/07/30 02:33:52;;;;;;;22.02;2.78;;;16.80;99.00;;;;;;4933550;29;20036;-86
2023/07/30 02:36:18;;;;;;;12.85;2.85;;;16.80;99.00;;;;;;4932137;29;20031;-86
2023/07/30 02:38:43;;;;;;;8.98;2.67;;;16.80;99.10;;;;;;4930908;29;20055;-86
2023/07/30 02:41:09;;;;;;;16.90;2.33;;;16.80;99.20;;;;;;4932403;29;20703;-87
2023/07/30 02:43:35;;;;;;;12.15;2.30;;;16.70;99.30;;;;;;4932808;29;20083;-88
2023/07/30 02:46:00;;;;;;;15.18;2.97;;;16.70;99.00;;;;;;4932966;29;20034;-86
2023/07/30 02:48:26;;;;;;;13.25;2.80;;;16.80;99.00;;;;;;4951607;29;20019;-86
2023/07/30 02:50:51;;;;;;;14.35;2.55;;;16.70;99.00;;;;;;4936247;29;20071;-85
2023/07/30 02:53:17;;;;;;;9.90;2.10;;;16.70;98.80;;;;;;4936048;29;20032;-86
2023/07/30 02:55:43;;;;;;;8.55;2.90;;;16.70;98.40;;;;;;4935903;29;20075;-86
2023/07/30 02:58:08;;;;;;;8.73;2.38;;;16.70;98.30;;;;;;4936887;29;20020;-86
2023/07/30 03:00:34;;;;;;;9.43;1.65;;;16.70;98.20;;;;;;4931972;29;20028;-85
2023/07/30 03:02:59;;;;;;;9.52;1.70;;;16.60;97.70;;;;;;4936639;29;20075;-86
2023/07/30 03:05:27;;;;;;;11.90;1.92;;;16.60;97.70;;;;;;4950649;29;20019;-86
2023/07/30 03:07:52;;;;;;;8.25;1.50;;;16.60;97.30;;;;;;4936019;29;20071;-85
2023/07/30 03:10:18;;;;;;;9.75;2.00;;;16.50;97.10;;;;;;4933853;29;20028;-84
2023/07/30 03:12:44;;;;;;;7.13;1.30;;;16.50;97.40;;;;;;4936023;28;20036;-86
2023/07/30 03:15:10;;;;;;;9.57;1.80;;;16.40;97.90;;;;;;4934809;29;20127;-85
2023/07/30 03:17:35;;;;;;;7.68;1.25;;;16.30;97.10;;;;;;4936652;28;20031;-83
2023/07/30 03:20:02;;;;;;;7.85;1.65;;;16.30;97.20;;;;;;4935044;29;20044;-85
2023/07/30 03:22:28;;;;;;;9.57;1.35;;;16.30;97.40;;;;;;4954932;23;20066;-82
2023/07/30 03:24:54;;;;;;;5.53;1.00;;;16.30;97.20;;;;;;4936087;29;20393;-85
2023/07/30 03:27:19;;;;;;;7.50;1.63;;;16.30;97.40;;;;;;4935993;29;20027;-83
2023/07/30 03:29:45;;;;;;;5.30;1.10;;;16.20;97.40;;;;;;4935770;29;20103;-84
2023/07/30 03:32:11;;;;;;;6.65;1.38;;;16.20;97.60;;;;;;4935655;29;20034;-85
2023/07/30 03:34:36;;;;;;;6.63;1.33;;;16.20;97.60;;;;;;4935671;29;20023;-84
2023/07/30 03:37:02;;;;;;;7.75;1.35;;;16.20;97.60;;;;;;4935514;29;20095;-84
2023/07/30 03:39:27;;;;;;;7.55;1.35;;;16.30;97.70;;;;;;4935690;29;20024;-86
2023/07/30 03:41:53;;;;;;;6.63;1.20;;;16.20;97.70;;;;;;4935717;29;20028;-85
2023/07/30 03:44:19;;;;;;;7.25;1.60;;;16.20;98.20;;;;;;4935733;29;20036;-85
2023/07/30 03:46:44;;;;;;;4.70;1.35;;;16.20;98.70;;;;;;4935460;29;20028;-84
2023/07/30 03:49:10;;;;;;;9.35;1.50;;;16.20;98.80;;;;;;4935345;29;20027;-83
2023/07/30 03:51:36;;;;;;;7.07;1.52;;;16.20;98.80;;;;;;4933811;29;20853;-85
2023/07/30 03:54:01;;;;;;;8.07;1.65;;;16.20;99.20;;;;;;4934493;28;20523;-83
2023/07/30 03:56:27;;;;;;;4.80;1.23;;;16.10;99.40;;;;;;4935102;29;20028;-85
2023/07/30 03:58:52;;;;;;;9.13;1.50;;;16.10;99.70;;;;;;4934056;29;20039;-84
2023/07/30 04:01:18;;;;;;;19.73;2.05;;;16.10;99.60;;;;;;4934251;29;20485;-83
2023/07/30 04:03:44;;;;;;;8.55;1.33;;;16.10;99.80;;;;;;4932541;29;20040;-84
2023/07/30 04:06:09;;;;;;;10.10;1.92;;;16.00;99.80;;;;;;4927011;29;20028;-84
2023/07/30 04:08:35;;;;;;;8.00;1.30;;;15.80;99.80;;;;;;4934696;29;20024;-84
2023/07/30 04:11:00;;;;;;;7.68;1.73;;;15.70;99.90;;;;;;4921783;29;20374;-84
2023/07/30 04:13:26;;;;;;;9.38;1.75;;;15.70;99.90;;;;;;4934789;29;20028;-85
2023/07/30 04:15:52;;;;;;;4.35;1.08;;;15.50;99.90;;;;;;4934940;29;20098;-86
2023/07/30 04:18:17;;;;;;;8.68;1.50;;;15.50;99.90;;;;;;4935009;29;20035;-85
2023/07/30 04:20:43;;;;;;;7.00;1.25;;;15.40;99.90;;;;;;4934830;29;20035;-83
2023/07/30 04:23:08;;;;;;;8.50;1.52;;;15.30;99.90;;;;;;4940419;23;20051;-84
2023/07/30 04:25:34;;;;;;;7.75;1.60;;;15.30;99.90;;;;;;4898526;29;20099;-84
2023/07/30 04:28:00;;;;;;;7.93;1.40;;;15.10;99.90;;;;;;4912176;29;20020;-86
2023/07/30 04:30:25;;;;;;;9.90;1.45;;;15.00;99.90;;;;;;4897983;29;20033;-84
2023/07/30 04:32:51;;;;;;;6.45;1.63;;;15.00;99.90;;;;;;4897686;29;20115;-86
2023/07/30 04:35:17;;;;;;;6.63;1.50;;;14.90;99.90;;;;;;4898170;29;20605;-88
2023/07/30 04:37:42;;;;;;;11.95;1.75;;;14.90;99.90;;;;;;4909809;29;20488;-85
2023/07/30 04:40:08;;;;;;;7.55;1.98;;;14.80;99.90;;;;;;4898110;29;20031;-87
2023/07/30 04:42:34;;;;;;;6.00;1.70;;;14.70;99.90;;;;;;4912346;29;20033;-87
2023/07/30 04:45:00;;;;;;;13.55;1.60;;;14.70;99.90;;;;;;4898383;29;20100;-88
2023/07/30 04:47:25;;;;;;;4.38;1.00;;;14.70;99.90;;;;;;4897653;29;20029;-88
2023/07/30 04:49:51;;;;;;;8.00;2.00;;;14.70;99.90;;;;;;4897412;29;20033;-89
2023/07/30 04:52:16;;;;;;;7.28;1.73;;;14.60;99.90;;;;;;4897509;29;20557;-87
2023/07/30 04:54:42;;;;;;;8.23;1.73;;;14.50;99.90;;;;;;4904516;29;20542;-85
2023/07/30 04:57:08;;;;;;;6.63;1.65;;;14.50;99.90;;;;;;4897793;29;20013;-87
2023/07/30 04:59:33;;;;;;;10.82;1.48;;;14.40;99.90;;;;;;4897561;29;20071;-86
2023/07/30 05:02:00;;;;;;;8.07;2.20;;;14.40;99.90;;;;;;4897590;29;20670;-86
2023/07/30 05:04:26;;;;;;;9.45;1.95;;;14.40;99.90;;;;;;4897813;29;20017;-86
2023/07/30 05:06:51;;;;;;;10.27;2.08;;;14.50;99.90;;;;;;4897646;29;20122;-87
2023/07/30 05:09:17;;;;;;;4.60;1.40;;;14.40;99.90;;;;;;4896202;29;20024;-85
2023/07/30 05:11:42;;;;;;;8.85;1.73;;;14.50;99.90;;;;;;4897309;29;20067;-87
2023/07/30 05:14:08;;;;;;;15.85;2.00;;;14.40;99.90;;;;;;4897644;29;20056;-86
2023/07/30 05:16:36;;;;;;;16.42;3.50;;;14.60;99.90;;;;;;4897309;29;20024;-87
2023/07/30 05:19:01;;;;;;;11.90;1.70;;;14.60;99.90;;;;;;4897465;29;20521;-86
2023/07/30 05:21:27;;;;;;;6.53;1.50;;;14.70;99.90;;;;;;4897699;29;20024;-89
2023/07/30 05:23:53;;;;;;;6.25;1.33;;;14.70;99.90;;;;;;4982842;23;20097;-85
2023/07/30 05:26:18;;;;;;;7.07;1.98;;;14.80;99.90;;;;;;4973573;28;20463;-85
2023/07/30 05:28:44;;;;;;;10.02;2.20;;;14.80;99.90;;;;;;4973249;28;20031;-84
2023/07/30 05:31:10;;;;;;;8.02;1.88;;;14.80;99.90;;;;;;4978595;28;20041;-83
2023/07/30 05:33:35;;;;;;;14.13;2.25;;;14.80;99.90;;;;;;4957315;28;20034;-85
2023/07/30 05:36:01;;;;;;;15.00;2.03;;;14.90;99.90;;;;;;4952740;28;20035;-84
2023/07/30 05:38:26;;;;;;;8.27;1.63;;;14.90;99.90;;;;;;4950115;28;20015;-84
2023/07/30 05:40:52;;;;;;;8.93;1.90;;;14.90;99.90;;;;;;4952571;28;20102;-85
2023/07/30 05:43:18;;;;;;;10.95;1.75;;;14.90;99.90;;;;;;4955850;28;20110;-82
2023/07/30 05:45:44;;;;;;;9.15;2.22;;;15.00;99.90;;;;;;4953257;28;20038;-84
2023/07/30 05:48:10;;;;;;;9.38;1.83;;;15.10;99.70;;;;;;4953868;28;20011;-85
2023/07/30 05:50:35;;;;;;;8.52;1.88;;;15.10;99.70;;;;;;4953775;28;20031;-83
2023/07/30 05:53:01;;;;;;;7.28;1.55;;;15.10;99.80;;;;;;4958825;28;20120;-84
2023/07/30 05:55:27;;;;;;;7.28;1.40;;;15.20;99.80;;;;;;4954328;28;20027;-84
2023/07/30 05:57:53;;;;;;;8.43;2.13;;;15.30;99.80;;;;;;4953984;28;20127;-83
2023/07/30 06:00:19;;;;;;;5.90;1.70;;;15.30;99.90;;;;;;4953173;28;20123;-85
2023/07/30 06:02:45;;;;;;;7.88;2.22;;;15.40;99.80;;;;;;4953740;28;20024;-84
2023/07/30 06:05:10;;;;;;;9.55;1.80;;;15.50;99.50;;;;;;4953580;28;20042;-85
2023/07/30 06:07:37;;;;;;;14.68;1.83;;;15.70;99.10;;;;;;4953256;28;20016;-86
2023/07/30 06:10:03;;;;;;;11.63;1.77;;;15.80;99.00;;;;;;4953402;28;20035;-84
2023/07/30 06:12:29;;;;;;;11.85;3.05;;;15.90;98.50;;;;;;4953697;28;20027;-82
2023/07/30 06:14:54;;;;;;;10.85;1.85;;;16.00;98.50;;;;;;4952567;28;20038;-83
2023/07/30 06:17:20;;;;;;;14.05;2.10;;;16.10;98.30;;;;;;4953628;28;20020;-83
2023/07/30 06:19:46;;;;;;;12.98;2.10;;;16.30;97.90;;;;;;4953526;28;20032;-82
2023/07/30 06:22:11;;;;;;;13.90;2.03;;;16.50;97.30;;;;;;4988404;23;20148;-87
2023/07/30 06:24:37;;;;;;;9.95;1.88;;;16.70;97.00;;;;;;4935189;29;20119;-90
2023/07/30 06:27:03;;;;;;;12.65;1.75;;;16.90;96.30;;;;;;4930836;29;20025;-90
2023/07/30 06:29:29;;;;;;;11.55;1.48;;;17.00;96.20;;;;;;4936105;29;20027;-87
2023/07/30 06:31:54;;;;;;;10.48;1.88;;;17.10;95.90;;;;;;4925585;29;20035;-88
2023/07/30 06:34:20;;;;;;;12.30;2.05;;;17.20;96.20;;;;;;4926972;29;20035;-87
2023/07/30 06:36:46;;;;;;;12.27;2.15;;;17.30;95.70;;;;;;4933091;29;20111;-85
2023/07/30 06:39:11;;;;;;;8.60;2.05;;;17.30;96.00;;;;;;4918545;29;20020;-88
2023/07/30 06:41:37;;;;;;;10.50;2.60;;;17.40;95.70;;;;;;4928550;29;20012;-87
2023/07/30 06:44:03;;;;;;;14.65;2.50;;;17.60;95.90;;;;;;4931022;29;20099;-85
2023/07/30 06:46:28;;;;;;;12.55;2.05;;;17.60;95.40;;;;;;4931362;28;20027;-89
2023/07/30 06:48:54;;;;;;;7.80;1.88;;;17.50;95.30;;;;;;4931322;29;20465;-87
2023/07/30 06:51:20;;;;;;;14.40;2.35;;;17.40;94.70;;;;;;4937662;29;20552;-89
2023/07/30 06:53:46;;;;;;;7.68;1.63;;;17.40;95.00;;;;;;4932239;28;20661;-89
2023/07/30 06:56:11;;;;;;;10.93;2.42;;;17.30;95.40;;;;;;4922156;29;20067;-87
2023/07/30 06:58:37;;;;;;;9.25;2.13;;;17.30;95.80;;;;;;4923113;29;20628;-87
2023/07/30 07:01:02;;;;;;;10.52;1.42;;;17.30;95.60;;;;;;4936890;29;20038;-90
2023/07/30 07:03:28;;;;;;;9.68;2.13;;;17.30;95.90;;;;;;4930597;29;20035;-88
2023/07/30 07:05:55;;;;;;;9.45;1.70;;;17.40;95.30;;;;;;4941246;29;20027;-87
2023/07/30 07:08:21;;;;;;;13.32;2.40;;;17.50;95.50;;;;;;4933595;29;20673;-87
2023/07/30 07:10:46;;;;;;;8.32;1.70;;;17.60;95.70;;;;;;4927986;29;20504;-86
2023/07/30 07:13:15;;;;;;;14.15;2.40;;;17.60;95.00;;;;;;4925095;29;20111;-86
2023/07/30 07:15:41;;;;;;;9.50;1.90;;;17.70;95.50;;;;;;4920049;29;20024;-87
2023/07/30 07:18:07;;;;;;;8.88;1.80;;;17.70;95.00;;;;;;4923766;29;20024;-85
2023/07/30 07:20:33;;;;;;;6.63;1.75;;;17.70;94.30;;;;;;4932523;29;20495;-88
2023/07/30 07:22:58;;;;;;;11.15;1.85;;;17.70;94.10;;;;;;4959153;23;20051;-85
2023/07/30 07:25:24;;;;;;;11.38;1.98;;;17.60;94.60;;;;;;4936569;29;20055;-84
2023/07/30 07:27:50;;;;;;;7.00;1.60;;;17.60;94.10;;;;;;4936063;29;20027;-83
2023/07/30 07:30:16;;;;;;;6.10;1.90;;;17.60;94.10;;;;;;4936994;29;20027;-82
2023/07/30 07:32:41;;;;;;;10.75;1.50;;;17.70;94.00;;;;;;4935389;29;20024;-84
2023/07/30 07:35:08;;;;;;;10.93;2.08;;;17.70;95.20;;;;;;4936773;29;20024;-84
2023/07/30 07:37:34;;;;;;;11.73;2.20;;;17.70;94.50;;;;;;4935204;29;20030;-84
2023/07/30 07:39:59;;;;;;;12.63;2.13;;;17.80;94.70;;;;;;4934974;28;20023;-82
2023/07/30 07:42:25;;;;;;;8.15;1.65;;;17.90;94.00;;;;;;4936424;29;20016;-84
2023/07/30 07:44:51;;;;;;;10.95;2.47;;;17.90;95.10;;;;;;4935876;29;20060;-81
2023/07/30 07:47:16;;;;;;;17.42;2.30;;;17.90;94.50;;;;;;4936724;29;20051;-82
2023/07/30 07:49:42;;;;;;;13.38;1.95;;;18.00;94.80;;;;;;4936433;29;20103;-82
2023/07/30 07:52:08;;;;;;;9.05;2.13;;;18.10;94.50;;;;;;4936813;29;20060;-85
2023/07/30 07:54:34;;;;;;;15.35;2.03;;;18.10;94.00;;;;;;4937435;29;20031;-83
2023/07/30 07:57:00;;;;;;;17.75;3.42;;;18.20;94.30;;;;;;4936487;29;20020;-84
2023/07/30 07:59:27;;;;;;;12.73;2.20;;;18.20;94.10;;;;;;4935694;29;20063;-86
2023/07/30 08:01:53;;;;;;;9.45;2.08;;;18.30;94.40;;;;;;4934882;29;20031;-83
2023/07/30 08:04:21;;;;;;;12.63;3.22;;;18.40;94.20;;;;;;4936708;29;20028;-84
2023/07/30 08:06:47;;;;;;;12.98;2.67;;;18.50;93.20;;;;;;4936565;29;20019;-84
2023/07/30 08:09:12;;;;;;;12.93;2.40;;;18.60;93.50;;;;;;4934787;29;20030;-83
2023/07/30 08:11:38;;;;;;;11.60;2.60;;;18.60;92.90;;;;;;4935185;29;20550;-83
2023/07/30 08:14:04;;;;;;;16.58;3.47;;;18.70;93.10;;;;;;4936441;29;20079;-85
2023/07/30 08:16:29;;;;;;;8.50;1.85;;;18.80;92.50;;;;;;4935921;29;20038;-83
2023/07/30 08:18:55;;;;;;;14.25;2.00;;;18.70;92.10;;;;;;4935641;29;20028;-84
2023/07/30 08:21:21;;;;;;;8.18;2.08;;;18.80;92.40;;;;;;4934041;29;20026;-83
2023/07/30 08:23:47;;;;;;;9.15;1.90;;;18.80;91.90;;;;;;4968090;23;20225;-88
2023/07/30 08:26:13;;;;;;;12.25;2.38;;;19.00;92.00;;;;;;4955058;28;20665;-85
2023/07/30 08:28:38;;;;;;;11.10;2.20;;;19.10;91.80;;;;;;4949653;28;20107;-84
2023/07/30 08:31:05;;;;;;;11.25;2.20;;;19.10;91.80;;;;;;4948267;28;20481;-84
2023/07/30 08:33:30;;;;;;;8.80;2.10;;;19.00;92.30;;;;;;4942308;28;20035;-84
2023/07/30 08:35:56;;;;;;;19.90;3.58;;;19.10;92.50;;;;;;4939497;29;20024;-85
2023/07/30 08:38:23;;;;;;;15.13;2.53;;;19.20;92.70;;;;;;4935042;29;20024;-85
2023/07/30 08:40:48;;;;;;;11.15;2.33;;;19.30;92.90;;;;;;4935270;29;20110;-83
2023/07/30 08:43:14;;;;;;;12.63;2.40;;;19.40;92.50;;;;;;4934668;29;20120;-84
2023/07/30 08:45:40;;;;;;;13.45;2.17;;;19.50;91.80;;;;;;4935200;29;20047;-85
2023/07/30 08:48:06;;;;;;;12.02;2.15;;;19.90;90.70;;;;;;4935787;29;20742;-85
2023/07/30 08:50:32;;;;;;;8.20;1.75;;;20.60;89.20;;;;;;4935467;29;20507;-84
2023/07/30 08:53:00;;;;;;;11.18;2.40;;;21.00;84.00;;;;;;4928815;29;20056;-83
2023/07/30 08:55:28;;;;;;;8.55;2.20;;;21.40;81.10;;;;;;4935731;29;20039;-88
2023/07/30 08:57:55;;;;;;;12.32;2.65;;;21.20;80.30;;;;;;4935616;29;20020;-87
2023/07/30 09:00:24;;;;;;;9.77;2.78;;;20.70;83.60;;;;;;4939413;29;20110;-86
2023/07/30 09:02:54;;;;;;;13.27;2.08;;;20.70;85.50;;;;;;4936658;29;20059;-87
2023/07/30 09:05:21;;;;;;;19.15;3.13;;;20.70;85.50;;;;;;4937681;28;20032;-86
2023/07/30 09:07:46;;;;;;;10.95;2.63;;;20.60;87.10;;;;;;4938116;29;20024;-86
2023/07/30 09:10:13;;;;;;;13.32;3.03;;;21.00;88.50;;;;;;4935921;29;20039;-90
2023/07/30 09:12:39;;;;;;;16.67;3.28;;;21.20;87.60;;;;;;4936177;29;20657;-89
2023/07/30 09:15:06;;;;;;;14.77;2.80;;;21.20;86.40;;;;;;4936681;29;20043;-87
2023/07/30 09:17:36;;;;;;;15.85;4.07;;;21.10;86.00;;;;;;4933553;29;20468;-85
2023/07/30 09:20:03;;;;;;;19.38;4.00;;;20.80;89.00;;;;;;4936045;28;20094;-87
2023/07/30 09:22:40;;;;;;;20.55;3.00;;;20.60;89.90;;;;;;4950048;23;20079;-83
2023/07/30 09:25:07;;;;;;;15.15;3.55;;;20.60;89.10;;;;;;4891129;29;20032;-85
2023/07/30 09:27:33;;;;;;;19.85;4.45;;;20.50;90.50;;;;;;4896296;29;20076;-85
2023/07/30 09:30:00;;;;;;;21.70;4.80;;;20.00;91.80;;;;;;4910694;29;20020;-85
2023/07/30 09:32:28;;;;;;;24.83;4.43;;;19.50;92.50;;;;;;4896118;29;20048;-82
2023/07/30 09:34:55;;;;;;;16.20;4.38;;;19.30;93.00;;;;;;4896054;29;20075;-81
2023/07/30 09:37:21;;;;;;;17.48;3.90;;;19.40;93.20;;;;;;4892676;29;20506;-82
2023/07/30 09:39:49;;;;;;;20.33;3.63;;;19.50;93.00;;;;;;4892424;29;20056;-82
2023/07/30 09:42:15;;;;;;;23.17;4.72;;;19.40;92.60;;;;;;4894247;29;20025;-82
2023/07/30 09:44:41;;;;;;;21.40;4.47;;;19.10;93.70;;;;;;4908401;29;20451;-81
2023/07/30 09:47:10;;;;;;;22.88;4.38;;;18.90;94.40;;;;;;4908230;29;20092;-81
2023/07/30 09:49:37;;;;;;;20.85;3.75;;;18.60;95.20;;;;;;4894223;29;20072;-81
2023/07/30 09:52:05;;;;;;;20.13;5.35;;;18.50;96.60;;;;;;4895311;29;20035;-82
2023/07/30 09:54:32;;;;;;;24.45;4.32;;;18.80;95.70;;;;;;4894092;29;20025;-80
2023/07/30 09:56:58;;;;;;;15.27;3.67;;;19.10;93.90;;;;;;4896091;29;20478;-84
2023/07/30 09:59:24;;;;;;;25.33;3.83;;;19.20;93.10;;;;;;4895071;29;20111;-83
2023/07/30 10:01:53;;;;;;;14.32;3.53;;;19.20;93.30;;;;;;4894577;29;20533;-80
2023/07/30 10:04:20;;;;;;;12.13;2.92;;;19.10;93.00;;;;;;4895906;29;20025;-82
2023/07/30 10:06:51;;;;;;;18.98;3.33;;;19.30;92.20;;;;;;4895685;29;20029;-83
2023/07/30 10:09:19;;;;;;;;;;;19.50;92.30;;;;;;4895669;29;20020;-81
2023/07/30 10:11:46;;;;;;;14.25;3.03;;;19.70;92.00;;;;;;4894327;29;19966;-81
2023/07/30 10:14:14;;;;;;;26.38;4.07;;;20.00;92.40;;;;;;4893912;29;20482;-81
2023/07/30 10:16:49;;;;;;;10.40;2.90;;;19.80;92.90;;;;;;4894543;29;20080;-81
2023/07/30 10:19:16;;;;;;;12.05;3.25;;;19.60;93.70;;;;;;4895179;29;20063;-80
2023/07/30 10:21:42;;;;;;;17.95;4.47;;;19.30;96.30;;;;;;4895284;29;20025;-83
2023/07/30 10:24:09;;;;;;;21.85;4.10;;;19.00;98.30;;;;;;4985965;23;20042;-91
2023/07/30 10:26:37;;;;;;;23.02;5.75;;;18.40;99.30;;;;;;4971738;28;20514;-87
2023/07/30 10:29:17;;;;;;;20.35;4.07;;;18.10;99.90;;;;;;4978639;28;20081;-85
2023/07/30 10:31:57;;;;;;;14.77;3.45;;;17.90;99.90;;;;;;4971882;28;20054;-87
2023/07/30 10:34:27;;;;;;;23.38;5.03;;;18.00;99.90;;;;;;4957666;28;20615;-87
2023/07/30 10:36:55;;;;;;;15.77;4.00;;;18.20;99.90;;;;;;4965848;28;20031;-86
2023/07/30 10:39:26;;;;;;;15.18;4.00;;;18.30;99.90;;;;;;4961572;28;20020;-90
2023/07/30 10:41:56;;;;;;;11.40;2.90;;;18.20;99.40;;;;;;4965167;28;20030;-92
2023/07/30 10:44:21;;;;;;;12.15;3.40;;;18.40;98.80;;;;;;4966452;28;20486;-87
2023/07/30 10:46:47;;;;;;;15.02;3.03;;;18.70;99.00;;;;;;4959873;28;20032;-90
2023/07/30 10:49:13;;;;;;;13.35;3.28;;;18.40;98.60;;;;;;4964877;28;20208;-87
2023/07/30 10:51:39;;;;;;;10.23;3.13;;;18.10;99.60;;;;;;4966656;28;20031;-90
2023/07/30 10:54:09;;;;;;;9.82;2.38;;;18.10;99.90;;;;;;4962953;28;20446;-88
2023/07/30 10:56:41;;;;;;;5.05;1.70;;;18.40;99.90;;;;;;4962739;28;20028;-90
2023/07/30 10:59:07;;;;;;;;;;;18.40;99.40;;;;;;4961883;28;20042;-88
2023/07/30 11:01:38;;;;;;;8.27;1.90;;;18.50;99.60;;;;;;4962155;28;19906;-91
2023/07/30 11:04:24;;;;;;;8.95;2.30;;;18.80;99.90;;;;;;4962492;28;20055;-89
2023/07/30 11:06:51;;;;;;;6.53;2.30;;;18.90;98.50;;;;;;4957440;28;20030;-89
2023/07/30 11:09:23;;;;;;;9.60;2.00;;;19.00;99.00;;;;;;4964857;28;20027;-87
2023/07/30 11:11:50;;;;;;;11.93;2.53;;;18.80;99.50;;;;;;4966806;28;20399;-90
2023/07/30 11:14:19;;;;;;;11.43;2.15;;;18.90;99.50;;;;;;4961346;28;20027;-90
2023/07/30 11:16:58;;;;;;;14.10;2.47;;;18.70;98.70;;;;;;4966008;28;20074;-91
2023/07/30 11:19:24;;;;;;;5.30;2.13;;;18.80;99.90;;;;;;4963460;28;20475;-88
2023/07/30 11:21:52;;;;;;;6.22;2.35;;;19.00;99.90;;;;;;4964082;28;20098;-90
2023/07/30 11:24:17;;;;;;;5.30;1.50;;;19.00;99.90;;;;;;4992821;22;20563;-80
2023/07/30 11:26:44;;;;;;;5.38;1.98;;;18.90;99.90;;;;;;4975611;28;20110;-81
2023/07/30 11:29:20;;;;;;;5.32;1.83;;;18.60;99.90;;;;;;4975020;28;20549;-83
2023/07/30 11:31:47;;;;;;;4.32;1.80;;;18.70;99.90;;;;;;4974127;28;20038;-80
2023/07/30 11:34:18;;;;;;;7.38;2.42;;;18.70;99.90;;;;;;4955503;28;20489;-83
2023/07/30 11:36:44;;;;;;;5.88;2.40;;;18.80;99.90;;;;;;4948646;28;20027;-81
2023/07/30 11:39:10;;;;;;;5.03;2.08;;;19.10;99.90;;;;;;4954329;28;20563;-84
2023/07/30 11:41:37;;;;;;;4.28;1.73;;;19.10;99.90;;;;;;4954984;28;20027;-82
2023/07/30 11:44:04;;;;;;;2.72;1.30;;;18.60;99.90;;;;;;4953792;28;20019;-82
2023/07/30 11:46:32;;;;;;;3.58;1.83;;;18.50;99.90;;;;;;4953753;28;20468;-81
2023/07/30 11:49:17;;;;;;;4.97;1.60;;;18.30;99.90;;;;;;4954144;28;20043;-82
2023/07/30 11:51:43;;;;;;;5.78;1.50;;;18.00;99.90;;;;;;4953901;28;20057;-83
2023/07/30 11:54:19;;;;;;;5.60;1.58;;;17.90;99.90;;;;;;4953554;28;20480;-80
2023/07/30 11:56:45;;;;;;;6.60;1.92;;;17.60;99.90;;;;;;4953719;28;20035;-82
2023/07/30 11:59:11;;;;;;;5.68;2.00;;;17.40;99.90;;;;;;4955625;28;20026;-82
2023/07/30 12:01:37;;;;;;;6.53;2.10;;;17.50;99.90;;;;;;4954198;28;20535;-81
2023/07/30 12:04:04;;;;;;;4.25;1.98;;;17.40;99.90;;;;;;4955430;28;20421;-81
2023/07/30 12:06:50;;;;;;;6.65;2.13;;;17.40;99.90;;;;;;4955714;28;20042;-81
2023/07/30 12:09:27;;;;;;;4.88;1.60;;;17.40;99.90;;;;;;4953612;28;20113;-83
2023/07/30 12:12:00;;;;;;;5.65;1.90;;;17.50;99.90;;;;;;4953828;28;20062;-83
2023/07/30 12:14:52;;;;;;;9.35;2.25;;;17.50;99.90;;;;;;4953798;28;20027;-83
2023/07/30 12:17:18;;;;;;;11.43;3.75;;;17.40;99.90;;;;;;4953821;28;20098;-83
2023/07/30 12:19:43;;;;;;;15.57;3.92;;;17.50;99.90;;;;;;4952593;28;20480;-84
2023/07/30 12:24:45;;;;;;;20.30;5.50;;;17.80;99.90;;;;;;5108277;23;20420;-89
2023/07/30 12:27:11;;;;;;;22.25;5.40;;;18.00;99.90;;;;;;4951743;29;20028;-90
2023/07/30 12:29:36;;;;;;;16.55;5.45;;;18.10;99.90;;;;;;4945614;29;20024;-88
2023/07/30 12:32:02;;;;;;;27.35;5.60;;;18.10;99.90;;;;;;4944924;29;20051;-89
2023/07/30 12:34:27;;;;;;;18.23;4.97;;;18.20;99.90;;;;;;4939194;29;20047;-91
2023/07/30 12:36:53;;;;;;;28.58;6.25;;;18.20;99.90;;;;;;4937715;29;20547;-90
2023/07/30 12:39:19;;;;;;;21.83;6.03;;;18.20;99.90;;;;;;4949305;29;20023;-91
2023/07/30 12:41:45;;;;;;;22.15;5.45;;;18.10;99.90;;;;;;4948706;29;20019;-90
2023/07/30 12:44:10;;;;;;;21.58;4.90;;;18.10;99.90;;;;;;4938607;29;20024;-87
2023/07/30 12:46:36;;;;;;;23.42;6.50;;;18.10;99.90;;;;;;4938516;29;20413;-90